sensor_id;sensor_type;location;lat;lon;timestamp;pressure;altitude;pressure_sealevel;temperature;humidity
62725;BME280;49026;52.600;4.694;2023-08-06T21:43:05;101292.88;;;12.68;94.63
62725;BME280;49026;52.600;4.694;2023-08-06T21:45:40;101282.88;;;12.76;94.89
62725;BME280;49026;52.600;4.694;2023-08-06T21:48:12;101275.44;;;12.86;94.75
62725;BME280;49026;52.600;4.694;2023-08-06T21:50:40;101288.81;;;12.81;94.82
62725;BME280;49026;52.600;4.694;2023-08-06T21:53:09;101283.81;;;12.75;95.28
62725;BME280;49026;52.600;4.694;2023-08-06T21:55:38;101292.66;;;12.74;95.22
62725;BME280;49026;52.600;4.694;2023-08-06T21:58:07;101276.22;;;12.67;95.06
62725;BME280;49026;52.600;4.694;2023-08-06T22:00:37;101296.72;;;12.60;95.03
62725;BME280;49026;52.600;4.694;2023-08-06T22:03:11;101268.84;;;12.55;95.35
62725;BME280;49026;52.600;4.694;2023-08-06T22:05:40;101305.06;;;12.50;95.61
62725;BME280;49026;52.600;4.694;2023-08-06T22:08:15;101302.28;;;12.53;96.30
62725;BME280;49026;52.600;4.694;2023-08-06T22:10:44;101283.00;;;12.52;96.30
62725;BME280;49026;52.600;4.694;2023-08-06T22:13:11;101292.81;;;12.49;96.63
62725;BME280;49026;52.600;4.694;2023-08-06T22:15:37;101293.03;;;12.42;96.76
62725;BME280;49026;52.600;4.694;2023-08-06T22:18:03;101294.09;;;12.38;96.86
62725;BME280;49026;52.600;4.694;2023-08-06T22:20:35;101288.84;;;12.38;97.29
62725;BME280;49026;52.600;4.694;2023-08-06T22:23:02;101281.78;;;12.39;97.57
62725;BME280;49026;52.600;4.694;2023-08-06T22:25:33;101308.00;;;12.42;97.67
62725;BME280;49026;52.600;4.694;2023-08-06T22:28:06;101288.50;;;12.46;97.29
62725;BME280;49026;52.600;4.694;2023-08-06T22:30:37;101281.28;;;12.51;97.38
62725;BME280;49026;52.600;4.694;2023-08-06T22:33:03;101307.91;;;12.45;97.90
62725;BME280;49026;52.600;4.694;2023-08-06T22:35:31;101316.81;;;12.41;97.26
62725;BME280;49026;52.600;4.694;2023-08-06T22:38:05;101277.44;;;12.38;97.86
62725;BME280;49026;52.600;4.694;2023-08-06T22:40:52;101293.31;;;12.36;97.67
62725;BME280;49026;52.600;4.694;2023-08-06T22:43:18;101304.72;;;12.37;97.80
62725;BME280;49026;52.600;4.694;2023-08-06T22:45:50;101265.22;;;12.35;98.06
62725;BME280;49026;52.600;4.694;2023-08-06T22:48:28;101296.91;;;12.34;97.72
62725;BME280;49026;52.600;4.694;2023-08-06T22:51:29;101305.66;;;12.34;97.93
62725;BME280;49026;52.600;4.694;2023-08-06T22:53:57;101311.56;;;12.41;98.32
62725;BME280;49026;52.600;4.694;2023-08-06T22:56:23;101298.44;;;12.39;98.21
62725;BME280;49026;52.600;4.694;2023-08-06T22:58:50;101298.66;;;12.35;98.57
62725;BME280;49026;52.600;4.694;2023-08-06T23:01:38;101303.25;;;12.30;98.15
62725;BME280;49026;52.600;4.694;2023-08-06T23:04:19;101300.91;;;12.22;98.29
62725;BME280;49026;52.600;4.694;2023-08-06T23:06:51;101312.41;;;12.19;98.23
62725;BME280;49026;52.600;4.694;2023-08-06T23:09:20;101310.72;;;12.18;98.75
62725;BME280;49026;52.600;4.694;2023-08-06T23:11:53;101320.47;;;12.16;98.46
62725;BME280;49026;52.600;4.694;2023-08-06T23:14:22;101289.94;;;12.11;98.34
62725;BME280;49026;52.600;4.694;2023-08-06T23:16:52;101331.22;;;12.10;98.81
62725;BME280;49026;52.600;4.694;2023-08-06T23:19:29;101332.88;;;12.13;98.48
62725;BME280;49026;52.600;4.694;2023-08-06T23:21:58;101325.16;;;12.08;98.34
62725;BME280;49026;52.600;4.694;2023-08-06T23:24:24;101320.25;;;11.99;98.50
62725;BME280;49026;52.600;4.694;2023-08-06T23:26:57;101312.44;;;11.96;98.76
62725;BME280;49026;52.600;4.694;2023-08-06T23:29:27;101290.47;;;11.97;98.58
62725;BME280;49026;52.600;4.694;2023-08-06T23:31:58;101316.69;;;12.00;98.30
62725;BME280;49026;52.600;4.694;2023-08-06T23:34:24;101318.72;;;11.93;98.39
62725;BME280;49026;52.600;4.694;2023-08-06T23:36:56;101316.06;;;11.93;98.77
62725;BME280;49026;52.600;4.694;2023-08-06T23:39:24;101320.13;;;12.02;98.56
62725;BME280;49026;52.600;4.694;2023-08-06T23:41:53;101321.66;;;12.08;98.29
62725;BME280;49026;52.600;4.694;2023-08-06T23:44:19;101297.78;;;12.12;98.18
62725;BME280;49026;52.600;4.694;2023-08-06T23:46:48;101308.06;;;12.18;98.44
62725;BME280;49026;52.600;4.694;2023-08-06T23:49:13;101323.50;;;12.28;98.37
62725;BME280;49026;52.600;4.694;2023-08-06T23:51:41;101320.63;;;12.34;98.16
62725;BME280;49026;52.600;4.694;2023-08-06T23:54:08;101319.41;;;12.42;98.36
62725;BME280;49026;52.600;4.694;2023-08-06T23:56:34;101314.84;;;12.46;97.39
62725;BME280;49026;52.600;4.694;2023-08-06T23:59:02;101327.84;;;12.51;97.65
